createdAt,value
2018-01-21T00:00:13.384Z,961.38
2018-01-21T00:01:13.384Z,961.42
2018-01-21T00:02:13.411Z,961.45
2018-01-21T00:03:13.372Z,961.45
2018-01-21T00:04:13.363Z,961.46
2018-01-21T00:05:13.409Z,961.44
2018-01-21T00:06:13.354Z,961.42
2018-01-21T00:07:13.386Z,961.44
2018-01-21T00:08:13.347Z,961.49
2018-01-21T00:09:13.339Z,961.49
2018-01-21T00:10:13.387Z,961.50
2018-01-21T00:11:13.329Z,961.54
2018-01-21T00:12:13.362Z,961.52
2018-01-21T00:13:13.322Z,961.53
2018-01-21T00:14:13.312Z,961.50
2018-01-21T00:15:13.313Z,961.54
2018-01-21T00:16:13.343Z,961.54
2018-01-21T00:17:13.297Z,961.55
2018-01-21T00:18:13.290Z,961.58
2018-01-21T00:19:13.298Z,961.58
2018-01-21T00:20:13.285Z,961.60
2018-01-21T00:21:13.326Z,961.63
2018-01-21T00:22:13.270Z,961.62
2018-01-21T00:23:13.266Z,961.65
2018-01-21T00:24:13.264Z,961.68
2018-01-21T00:25:13.257Z,961.66
2018-01-21T00:26:13.298Z,961.68
2018-01-21T00:27:13.247Z,961.71
2018-01-21T00:28:13.240Z,961.71
2018-01-21T00:29:13.237Z,961.74
2018-01-21T00:30:13.231Z,961.77
2018-01-21T00:31:13.264Z,961.75
2018-01-21T00:32:13.221Z,961.70
2018-01-21T00:33:13.219Z,961.73
2018-01-21T00:34:13.209Z,961.74
2018-01-21T00:35:13.205Z,961.74
2018-01-21T00:36:13.244Z,961.76
2018-01-21T00:37:13.195Z,961.78
2018-01-21T00:38:13.187Z,961.82
2018-01-21T00:39:13.184Z,961.82
2018-01-21T00:40:13.178Z,961.80
2018-01-21T00:41:14.058Z,961.84
2018-01-21T00:42:13.173Z,961.81
2018-01-21T00:43:13.162Z,961.83
2018-01-21T00:44:13.159Z,961.82
2018-01-21T00:45:13.155Z,961.80
2018-01-21T00:46:13.192Z,961.81
2018-01-21T00:47:13.147Z,961.83
2018-01-21T00:48:13.138Z,961.87
2018-01-21T00:49:13.131Z,961.88
2018-01-21T00:50:13.131Z,961.87
2018-01-21T00:51:13.169Z,961.90
2018-01-21T00:52:13.119Z,961.93
2018-01-21T00:53:13.112Z,961.92
2018-01-21T00:54:13.106Z,961.91
2018-01-21T00:55:13.109Z,961.92
2018-01-21T00:56:13.133Z,961.96
2018-01-21T00:57:13.138Z,961.95
2018-01-21T00:58:13.084Z,961.99
2018-01-21T00:59:13.080Z,962.00
2018-01-21T01:00:13.076Z,962.03
2018-01-21T01:01:13.077Z,962.05
2018-01-21T01:02:13.105Z,962.05
2018-01-21T01:03:13.062Z,962.08
2018-01-21T01:04:13.056Z,962.06
2018-01-21T01:05:13.050Z,962.09
2018-01-21T01:06:13.085Z,962.11
2018-01-21T01:07:13.040Z,962.09
2018-01-21T01:08:13.373Z,962.14
2018-01-21T01:09:13.028Z,962.15
2018-01-21T01:10:13.028Z,962.17
2018-01-21T01:11:13.060Z,962.20
2018-01-21T01:12:13.016Z,962.22
2018-01-21T01:13:13.013Z,962.23
2018-01-21T01:14:13.044Z,962.27
2018-01-21T01:15:12.997Z,962.27
2018-01-21T01:16:13.032Z,962.31
2018-01-21T01:17:12.987Z,962.37
2018-01-21T01:18:12.984Z,962.36
2018-01-21T01:19:12.980Z,962.39
2018-01-21T01:20:12.975Z,962.38
2018-01-21T01:21:13.014Z,962.39
2018-01-21T01:22:12.966Z,962.41
2018-01-21T01:23:12.959Z,962.41
2018-01-21T01:24:12.954Z,962.40
2018-01-21T01:25:12.948Z,962.42
2018-01-21T01:26:12.981Z,962.44
2018-01-21T01:27:12.942Z,962.44
2018-01-21T01:28:12.930Z,962.49
2018-01-21T01:29:12.944Z,962.50
2018-01-21T01:30:12.922Z,962.52
2018-01-21T01:31:12.961Z,962.54
2018-01-21T01:32:12.910Z,962.55
2018-01-21T01:33:12.904Z,962.57
2018-01-21T01:34:12.900Z,962.56
2018-01-21T01:35:12.961Z,962.58
2018-01-21T01:36:12.938Z,962.60
2018-01-21T01:37:12.889Z,962.63
2018-01-21T01:38:12.878Z,962.63
2018-01-21T01:39:12.884Z,962.63
2018-01-21T01:40:12.870Z,962.65
2018-01-21T01:41:12.910Z,962.69
2018-01-21T01:42:12.857Z,962.69
2018-01-21T01:43:12.851Z,962.71
2018-01-21T01:44:12.850Z,962.74
2018-01-21T01:45:12.880Z,962.73
2018-01-21T01:46:12.840Z,962.78
2018-01-21T01:47:12.884Z,962.76
2018-01-21T01:48:12.827Z,962.74
2018-01-21T01:49:12.823Z,962.79
2018-01-21T01:50:12.865Z,962.80
2018-01-21T01:51:12.813Z,962.84
2018-01-21T01:52:12.811Z,962.88
2018-01-21T01:53:12.803Z,962.88
2018-01-21T01:54:12.797Z,962.92
2018-01-21T01:55:12.828Z,962.93
2018-01-21T01:56:13.628Z,962.94
2018-01-21T01:57:12.831Z,962.93
2018-01-21T01:58:12.778Z,962.99
2018-01-21T01:59:12.773Z,962.97
2018-01-21T02:00:12.810Z,962.97
2018-01-21T02:01:12.760Z,962.99
2018-01-21T02:02:12.761Z,962.99
2018-01-21T02:03:12.792Z,963.01
2018-01-21T02:04:12.749Z,962.99
2018-01-21T02:05:12.746Z,962.99
2018-01-21T02:06:12.738Z,962.99
2018-01-21T02:07:12.729Z,962.99
2018-01-21T02:08:12.765Z,963.02
2018-01-21T02:09:12.718Z,963.03
2018-01-21T02:10:12.714Z,963.05
2018-01-21T02:11:12.711Z,963.10
2018-01-21T02:12:12.759Z,963.09
2018-01-21T02:13:12.704Z,963.11
2018-01-21T02:14:12.706Z,963.14
2018-01-21T02:15:12.739Z,963.13
2018-01-21T02:16:12.689Z,963.14
2018-01-21T02:17:12.686Z,963.13
2018-01-21T02:18:12.716Z,963.17
2018-01-21T02:19:12.676Z,963.19
2018-01-21T02:20:12.669Z,963.17
2018-01-21T02:21:12.664Z,963.22
2018-01-21T02:22:12.708Z,963.22
2018-01-21T02:23:12.653Z,963.24
2018-01-21T02:24:12.648Z,963.21
2018-01-21T02:25:12.692Z,963.20
2018-01-21T02:26:12.638Z,963.20
2018-01-21T02:27:12.629Z,963.21
2018-01-21T02:28:12.671Z,963.23
2018-01-21T02:29:12.625Z,963.20
2018-01-21T02:30:12.619Z,963.22
2018-01-21T02:31:12.624Z,963.25
2018-01-21T02:32:12.611Z,963.23
2018-01-21T02:33:12.644Z,963.23
2018-01-21T02:34:12.596Z,963.26
2018-01-21T02:35:12.591Z,963.26
2018-01-21T02:36:12.587Z,963.26
2018-01-21T02:37:12.577Z,963.26
2018-01-21T02:38:12.614Z,963.28
2018-01-21T02:39:12.564Z,963.31
2018-01-21T02:40:12.560Z,963.31
2018-01-21T02:41:12.556Z,963.35
2018-01-21T02:42:12.548Z,963.35
2018-01-21T02:43:12.582Z,963.36
2018-01-21T02:44:12.541Z,963.39
2018-01-21T02:45:12.538Z,963.40
2018-01-21T02:46:12.534Z,963.41
2018-01-21T02:47:12.524Z,963.41
2018-01-21T02:48:12.568Z,963.44
2018-01-21T02:49:12.515Z,963.46
2018-01-21T02:50:12.548Z,963.46
2018-01-21T02:51:12.503Z,963.46
2018-01-21T02:52:12.501Z,963.49
2018-01-21T02:53:12.494Z,963.53
2018-01-21T02:54:12.532Z,963.56
2018-01-21T02:55:12.483Z,963.51
2018-01-21T02:56:12.479Z,963.54
2018-01-21T02:57:12.472Z,963.56
2018-01-21T02:58:12.469Z,963.60
2018-01-21T02:59:12.500Z,963.59
2018-01-21T03:00:12.458Z,963.59
2018-01-21T03:01:12.452Z,963.57
2018-01-21T03:02:12.449Z,963.57
2018-01-21T03:03:12.442Z,963.56
2018-01-21T03:04:12.483Z,963.61
2018-01-21T03:05:12.430Z,963.59
2018-01-21T03:06:12.425Z,963.59
2018-01-21T03:07:12.421Z,963.60
2018-01-21T03:08:12.416Z,963.59
2018-01-21T03:09:12.457Z,963.63
2018-01-21T03:10:12.453Z,963.68
2018-01-21T03:11:12.400Z,963.68
2018-01-21T03:12:12.396Z,963.69
2018-01-21T03:13:12.402Z,963.72
2018-01-21T03:14:12.390Z,963.73
2018-01-21T03:15:12.432Z,963.72
2018-01-21T03:16:12.383Z,963.72
2018-01-21T03:17:12.379Z,963.76
2018-01-21T03:18:12.364Z,963.73
2018-01-21T03:19:12.413Z,963.73
2018-01-21T03:20:12.360Z,963.74
2018-01-21T03:21:12.350Z,963.77
2018-01-21T03:22:12.345Z,963.82
2018-01-21T03:23:12.395Z,963.78
2018-01-21T03:24:12.336Z,963.81
2018-01-21T03:25:12.368Z,963.83
2018-01-21T03:26:12.330Z,963.85
2018-01-21T03:27:12.332Z,963.85
2018-01-21T03:28:12.316Z,963.91
2018-01-21T03:29:12.312Z,963.93
2018-01-21T03:30:12.356Z,963.96
2018-01-21T03:31:12.301Z,963.95
2018-01-21T03:32:12.343Z,964.00
2018-01-21T03:33:12.294Z,964.03
2018-01-21T03:34:12.290Z,964.03
2018-01-21T03:35:12.429Z,964.05
2018-01-21T03:36:12.283Z,964.07
2018-01-21T03:37:12.269Z,964.07
2018-01-21T03:38:12.266Z,964.06
2018-01-21T03:39:12.265Z,964.05
2018-01-21T03:40:12.294Z,964.09
2018-01-21T03:41:12.247Z,964.07
2018-01-21T03:42:12.250Z,964.08
2018-01-21T03:43:12.248Z,964.10
2018-01-21T03:44:12.244Z,964.12
2018-01-21T03:45:12.269Z,964.12
2018-01-21T03:46:12.227Z,964.16
2018-01-21T03:47:12.216Z,964.18
2018-01-21T03:48:12.215Z,964.16
2018-01-21T03:49:12.215Z,964.25
2018-01-21T03:50:12.248Z,964.25
2018-01-21T03:51:12.197Z,964.27
2018-01-21T03:52:12.196Z,964.30
2018-01-21T03:53:12.187Z,964.29
2018-01-21T03:54:12.184Z,964.31
2018-01-21T03:55:12.226Z,964.34
2018-01-21T03:56:12.175Z,964.34
2018-01-21T03:57:12.226Z,964.41
2018-01-21T03:58:12.162Z,964.43
2018-01-21T03:59:12.156Z,964.39
2018-01-21T04:00:12.155Z,964.42
2018-01-21T04:01:12.152Z,964.38
2018-01-21T04:02:12.190Z,964.44
2018-01-21T04:03:12.140Z,964.45
2018-01-21T04:04:12.137Z,964.47
2018-01-21T04:05:12.129Z,964.51
2018-01-21T04:06:12.176Z,964.48
2018-01-21T04:07:12.157Z,964.51
2018-01-21T04:08:12.112Z,964.54
2018-01-21T04:09:12.110Z,964.54
2018-01-21T04:10:12.104Z,964.60
2018-01-21T04:11:12.102Z,964.59
2018-01-21T04:12:12.130Z,964.59
2018-01-21T04:13:12.088Z,964.58
2018-01-21T04:14:12.084Z,964.62
2018-01-21T04:15:12.077Z,964.63
2018-01-21T04:16:12.069Z,964.68
2018-01-21T04:17:12.110Z,964.67
2018-01-21T04:18:12.060Z,964.67
2018-01-21T04:19:12.063Z,964.66
2018-01-21T04:20:12.055Z,964.66
2018-01-21T04:21:12.048Z,964.62
2018-01-21T04:22:12.409Z,964.67
2018-01-21T04:23:12.041Z,964.67
2018-01-21T04:24:12.038Z,964.67
2018-01-21T04:25:12.030Z,964.68
2018-01-21T04:26:12.028Z,964.69
2018-01-21T04:27:12.069Z,964.76
2018-01-21T04:28:12.025Z,964.75
2018-01-21T04:29:12.018Z,964.77
2018-01-21T04:30:12.006Z,964.82
2018-01-21T04:31:12.047Z,964.86
2018-01-21T04:32:11.988Z,964.85
2018-01-21T04:33:12.043Z,964.83
2018-01-21T04:34:12.001Z,964.87
2018-01-21T04:35:12.026Z,964.89
2018-01-21T04:36:11.980Z,964.91
2018-01-21T04:37:11.969Z,964.91
2018-01-21T04:38:11.970Z,964.96
2018-01-21T04:39:12.016Z,964.97
2018-01-21T04:40:11.957Z,964.98
2018-01-21T04:41:11.946Z,964.98
2018-01-21T04:42:11.940Z,965.03
2018-01-21T04:43:11.930Z,965.04
2018-01-21T04:44:11.980Z,965.09
2018-01-21T04:45:11.925Z,965.05
2018-01-21T04:46:11.932Z,965.11
2018-01-21T04:47:11.921Z,965.12
2018-01-21T04:48:11.914Z,965.16
2018-01-21T04:49:11.951Z,965.18
2018-01-21T04:50:11.900Z,965.16
2018-01-21T04:51:11.894Z,965.20
2018-01-21T04:52:11.889Z,965.17
2018-01-21T04:53:12.501Z,965.19
2018-01-21T04:54:11.921Z,965.19
2018-01-21T04:55:11.873Z,965.16
2018-01-21T04:56:11.871Z,965.17
2018-01-21T04:57:11.865Z,965.19
2018-01-21T04:58:11.871Z,965.17
2018-01-21T04:59:11.900Z,965.23
2018-01-21T05:00:11.859Z,965.19
2018-01-21T05:01:11.845Z,965.25
2018-01-21T05:02:11.838Z,965.32
2018-01-21T05:03:11.836Z,965.36
2018-01-21T05:04:11.875Z,965.39
2018-01-21T05:05:11.831Z,965.39
2018-01-21T05:06:11.834Z,965.43
2018-01-21T05:07:11.820Z,965.47
2018-01-21T05:08:11.816Z,965.41
2018-01-21T05:09:11.869Z,965.47
2018-01-21T05:10:11.812Z,965.47
2018-01-21T05:11:11.803Z,965.50
2018-01-21T05:12:11.798Z,965.50
2018-01-21T05:13:11.796Z,965.56
2018-01-21T05:14:11.826Z,965.55
2018-01-21T05:15:11.838Z,965.59
2018-01-21T05:16:11.778Z,965.56
2018-01-21T05:17:11.779Z,965.61
2018-01-21T05:18:11.772Z,965.64
2018-01-21T05:19:11.783Z,965.62
2018-01-21T05:20:11.811Z,965.61
2018-01-21T05:21:11.762Z,965.65
2018-01-21T05:22:11.756Z,965.64
2018-01-21T05:23:11.770Z,965.67
2018-01-21T05:24:11.742Z,965.70
2018-01-21T05:25:11.805Z,965.73
2018-01-21T05:26:11.737Z,965.73
2018-01-21T05:27:11.735Z,965.78
2018-01-21T05:28:12.140Z,965.79
2018-01-21T05:29:11.765Z,965.82
2018-01-21T05:30:11.763Z,965.82
2018-01-21T05:31:11.715Z,965.86
2018-01-21T05:32:11.702Z,965.85
2018-01-21T05:33:11.932Z,965.91
2018-01-21T05:34:11.742Z,965.92
2018-01-21T05:35:11.741Z,965.99
2018-01-21T05:36:11.697Z,965.97
2018-01-21T05:37:11.674Z,966.01
2018-01-21T05:38:11.679Z,966.06
2018-01-21T05:39:11.713Z,966.10
2018-01-21T05:40:12.445Z,966.11
2018-01-21T05:41:11.693Z,966.14
2018-01-21T05:42:11.663Z,966.16
2018-01-21T05:43:11.653Z,966.15
2018-01-21T05:44:11.688Z,966.17
2018-01-21T05:45:11.651Z,966.24
2018-01-21T05:46:11.677Z,966.29
2018-01-21T05:47:11.624Z,966.32
2018-01-21T05:48:11.611Z,966.33
2018-01-21T05:49:11.615Z,966.36
2018-01-21T05:50:11.612Z,966.39
2018-01-21T05:51:11.652Z,966.42
2018-01-21T05:52:11.621Z,966.44
2018-01-21T05:53:11.604Z,966.46
2018-01-21T05:54:11.589Z,966.52
2018-01-21T05:55:11.581Z,966.54
2018-01-21T05:56:11.635Z,966.58
2018-01-21T05:57:11.564Z,966.59
2018-01-21T05:58:11.565Z,966.61
2018-01-21T05:59:11.571Z,966.62
2018-01-21T06:00:11.563Z,966.65
2018-01-21T06:01:11.572Z,966.66
2018-01-21T06:02:11.595Z,966.68
2018-01-21T06:03:11.555Z,966.71
2018-01-21T06:04:11.546Z,966.70
2018-01-21T06:05:11.535Z,966.73
2018-01-21T06:06:11.580Z,966.75
2018-01-21T06:07:11.513Z,966.78
2018-01-21T06:08:11.519Z,966.83
2018-01-21T06:09:11.573Z,966.89
2018-01-21T06:10:11.504Z,966.87
2018-01-21T06:11:11.490Z,966.92
2018-01-21T06:12:11.487Z,966.95
2018-01-21T06:13:11.482Z,966.99
2018-01-21T06:14:11.517Z,966.98
2018-01-21T06:15:11.484Z,967.05
2018-01-21T06:16:11.473Z,967.06
2018-01-21T06:17:11.504Z,967.06
2018-01-21T06:18:11.462Z,967.13
2018-01-21T06:19:11.450Z,967.08
2018-01-21T06:20:11.442Z,967.16
2018-01-21T06:21:11.439Z,967.15
2018-01-21T06:22:11.480Z,967.16
2018-01-21T06:23:11.426Z,967.22
2018-01-21T06:24:11.466Z,967.26
2018-01-21T06:25:11.416Z,967.26
2018-01-21T06:26:11.416Z,967.29
2018-01-21T06:27:11.406Z,967.29
2018-01-21T06:28:11.446Z,967.29
2018-01-21T06:29:11.397Z,967.32
2018-01-21T06:30:11.394Z,967.33
2018-01-21T06:31:11.390Z,967.32
2018-01-21T06:32:11.386Z,967.38
2018-01-21T06:33:11.425Z,967.46
2018-01-21T06:34:11.370Z,967.46
2018-01-21T06:35:11.368Z,967.52
2018-01-21T06:36:11.363Z,967.53
2018-01-21T06:37:11.359Z,967.51
2018-01-21T06:38:11.883Z,967.59
2018-01-21T06:39:11.346Z,967.62
2018-01-21T06:40:11.338Z,967.62
2018-01-21T06:41:11.337Z,967.64
2018-01-21T06:42:11.330Z,967.68
2018-01-21T06:43:11.368Z,967.71
2018-01-21T06:44:11.319Z,967.70
2018-01-21T06:45:11.313Z,967.72
2018-01-21T06:46:11.307Z,967.78
2018-01-21T06:47:11.306Z,967.80
2018-01-21T06:48:11.351Z,967.86
2018-01-21T06:49:11.296Z,967.91
2018-01-21T06:50:11.292Z,967.93
2018-01-21T06:51:11.285Z,967.94
2018-01-21T06:52:11.283Z,967.97
2018-01-21T06:53:11.316Z,967.99
2018-01-21T06:54:11.267Z,968.01
2018-01-21T06:55:11.261Z,968.04
2018-01-21T06:56:11.265Z,968.05
2018-01-21T06:57:11.264Z,968.00
2018-01-21T06:58:11.297Z,968.06
2018-01-21T06:59:11.240Z,968.07
2018-01-21T07:00:11.235Z,968.08
2018-01-21T07:01:11.231Z,968.08
2018-01-21T07:02:11.272Z,968.12
2018-01-21T07:03:11.222Z,968.15
2018-01-21T07:04:11.267Z,968.20
2018-01-21T07:05:11.213Z,968.24
2018-01-21T07:06:11.206Z,968.26
2018-01-21T07:07:11.200Z,968.27
2018-01-21T07:08:11.196Z,968.33
2018-01-21T07:09:11.241Z,968.34
2018-01-21T07:10:11.192Z,968.37
2018-01-21T07:11:11.194Z,968.36
2018-01-21T07:12:11.216Z,968.39
2018-01-21T07:13:11.168Z,968.42
2018-01-21T07:14:11.164Z,968.46
2018-01-21T07:15:11.209Z,968.50
2018-01-21T07:16:11.157Z,968.55
2018-01-21T07:17:11.187Z,968.52
2018-01-21T07:18:11.146Z,968.60
2018-01-21T07:19:11.183Z,968.58
2018-01-21T07:20:11.134Z,968.65
2018-01-21T07:21:11.130Z,968.64
2018-01-21T07:22:11.126Z,968.69
2018-01-21T07:23:11.122Z,968.68
2018-01-21T07:24:11.149Z,968.77
2018-01-21T07:25:11.109Z,968.77
2018-01-21T07:26:11.119Z,968.83
2018-01-21T07:27:11.099Z,968.82
2018-01-21T07:28:11.095Z,968.89
2018-01-21T07:29:11.133Z,968.89
2018-01-21T07:30:11.744Z,968.87
2018-01-21T07:31:11.885Z,968.93
2018-01-21T07:32:11.073Z,968.98
2018-01-21T07:33:11.065Z,969.01
2018-01-21T07:34:11.098Z,969.01
2018-01-21T07:35:11.723Z,969.02
2018-01-21T07:36:11.052Z,969.08
2018-01-21T07:37:11.808Z,969.13
2018-01-21T07:38:11.043Z,969.15
2018-01-21T07:39:11.084Z,969.20
2018-01-21T07:40:11.028Z,969.24
2018-01-21T07:41:11.023Z,969.25
2018-01-21T07:42:11.019Z,969.30
2018-01-21T07:43:11.014Z,969.32
2018-01-21T07:44:11.056Z,969.36
2018-01-21T07:45:11.010Z,969.38
2018-01-21T07:46:11.002Z,969.39
2018-01-21T07:47:10.997Z,969.42
2018-01-21T07:48:10.995Z,969.49
2018-01-21T07:49:11.036Z,969.52
2018-01-21T07:50:10.989Z,969.52
2018-01-21T07:51:11.017Z,969.55
2018-01-21T07:52:10.967Z,969.58
2018-01-21T07:53:10.965Z,969.62
2018-01-21T07:54:11.474Z,969.71
2018-01-21T07:55:10.956Z,969.72
2018-01-21T07:56:10.953Z,969.75
2018-01-21T07:57:10.949Z,969.80
2018-01-21T07:58:10.937Z,969.80
2018-01-21T07:59:10.986Z,969.85
2018-01-21T08:00:10.936Z,969.88
2018-01-21T08:01:10.930Z,969.88
2018-01-21T08:02:11.626Z,969.87
2018-01-21T08:03:10.918Z,969.92
2018-01-21T08:04:10.952Z,969.93
2018-01-21T08:05:10.917Z,969.96
2018-01-21T08:06:10.909Z,970.01
2018-01-21T08:07:10.903Z,970.07
2018-01-21T08:08:10.899Z,970.07
2018-01-21T08:09:10.952Z,970.11
2018-01-21T08:10:10.907Z,970.18
2018-01-21T08:11:10.932Z,970.18
2018-01-21T08:12:10.883Z,970.22
2018-01-21T08:13:10.880Z,970.26
2018-01-21T08:14:10.875Z,970.28
2018-01-21T08:15:10.921Z,970.33
2018-01-21T08:16:10.904Z,970.30
2018-01-21T08:17:10.867Z,970.36
2018-01-21T08:18:10.854Z,970.41
2018-01-21T08:19:10.853Z,970.39
2018-01-21T08:20:10.859Z,970.45
2018-01-21T08:21:10.883Z,970.47
2018-01-21T08:22:10.843Z,970.51
2018-01-21T08:23:10.843Z,970.52
2018-01-21T08:24:10.839Z,970.55
2018-01-21T08:25:10.873Z,970.57
2018-01-21T08:26:10.835Z,970.63
2018-01-21T08:27:10.820Z,970.64
2018-01-21T08:28:10.831Z,970.70
2018-01-21T08:29:10.809Z,970.72
2018-01-21T08:30:10.870Z,970.72
2018-01-21T08:31:10.811Z,970.72
2018-01-21T08:32:10.804Z,970.74
2018-01-21T08:33:10.812Z,970.76
2018-01-21T08:34:10.804Z,970.74
2018-01-21T08:35:10.830Z,970.73
2018-01-21T08:36:10.839Z,970.81
2018-01-21T08:37:10.791Z,970.77
2018-01-21T08:38:10.774Z,970.83
2018-01-21T08:39:10.770Z,970.85
2018-01-21T08:40:10.771Z,970.93
2018-01-21T08:41:10.803Z,970.94
2018-01-21T08:42:10.771Z,970.97
2018-01-21T08:43:10.759Z,971.01
2018-01-21T08:44:10.751Z,971.07
2018-01-21T08:45:10.791Z,971.11
2018-01-21T08:46:10.748Z,971.17
2018-01-21T08:47:10.737Z,971.20
2018-01-21T08:48:10.736Z,971.20
2018-01-21T08:49:10.761Z,971.22
2018-01-21T08:50:10.718Z,971.29
2018-01-21T08:51:10.766Z,971.33
2018-01-21T08:52:10.725Z,971.35
2018-01-21T08:53:10.711Z,971.37
2018-01-21T08:54:10.708Z,971.37
2018-01-21T08:55:10.707Z,971.36
2018-01-21T08:56:10.747Z,971.44
2018-01-21T08:57:10.696Z,971.46
2018-01-21T08:58:10.690Z,971.50
2018-01-21T08:59:10.745Z,971.52
2018-01-21T09:00:10.686Z,971.54
2018-01-21T09:01:10.689Z,971.57
2018-01-21T09:02:10.677Z,971.55
2018-01-21T09:03:11.239Z,971.64
2018-01-21T09:04:10.665Z,971.65
2018-01-21T09:05:10.704Z,971.70
2018-01-21T09:06:10.688Z,971.77
2018-01-21T09:07:10.694Z,971.76
2018-01-21T09:08:10.658Z,971.76
2018-01-21T09:09:10.650Z,971.78
2018-01-21T09:10:10.646Z,971.90
2018-01-21T09:11:10.640Z,971.93
2018-01-21T09:12:10.676Z,971.91
2018-01-21T09:13:10.639Z,971.97
2018-01-21T09:14:10.630Z,971.94
2018-01-21T09:15:10.627Z,971.92
2018-01-21T09:16:10.619Z,971.94
2018-01-21T09:17:10.653Z,971.97
2018-01-21T09:18:10.720Z,971.98
2018-01-21T09:19:10.616Z,972.00
2018-01-21T09:20:10.604Z,972.02
2018-01-21T09:21:10.603Z,972.03
2018-01-21T09:22:10.661Z,972.02
2018-01-21T09:23:10.599Z,972.11
2018-01-21T09:24:10.627Z,972.10
2018-01-21T09:25:10.588Z,972.10
2018-01-21T09:26:10.579Z,972.17
2018-01-21T09:27:10.628Z,972.17
2018-01-21T09:28:10.574Z,972.23
2018-01-21T09:29:11.342Z,972.26
2018-01-21T09:30:10.569Z,972.27
2018-01-21T09:31:10.562Z,972.32
2018-01-21T09:32:10.593Z,972.34
2018-01-21T09:33:10.555Z,972.37
2018-01-21T09:34:10.550Z,972.41
2018-01-21T09:35:10.547Z,972.43
2018-01-21T09:36:11.405Z,972.47
2018-01-21T09:37:10.587Z,972.49
2018-01-21T09:38:10.540Z,972.51
2018-01-21T09:39:10.531Z,972.54
2018-01-21T09:40:10.533Z,972.55
2018-01-21T09:41:10.527Z,972.58
2018-01-21T09:42:10.564Z,972.64
2018-01-21T09:43:11.398Z,972.68
2018-01-21T09:44:10.559Z,972.69
2018-01-21T09:45:10.505Z,972.74
2018-01-21T09:46:10.500Z,972.81
2018-01-21T09:47:10.555Z,972.80
2018-01-21T09:48:10.504Z,972.82
2018-01-21T09:49:10.494Z,972.80
2018-01-21T09:50:10.584Z,972.85
2018-01-21T09:51:10.480Z,972.83
2018-01-21T09:52:10.493Z,972.86
2018-01-21T09:53:10.521Z,972.86
2018-01-21T09:54:10.511Z,972.83
2018-01-21T09:55:10.474Z,972.86
2018-01-21T09:56:10.469Z,972.88
2018-01-21T09:57:12.367Z,972.89
2018-01-21T09:58:10.467Z,972.90
2018-01-21T09:59:10.542Z,972.93
2018-01-21T10:00:10.459Z,972.94
2018-01-21T10:01:10.443Z,972.96
2018-01-21T10:02:10.442Z,972.93
2018-01-21T10:03:10.433Z,972.93
2018-01-21T10:04:10.477Z,972.93
2018-01-21T10:05:10.441Z,972.97
2018-01-21T10:06:10.434Z,973.00
2018-01-21T10:07:10.433Z,973.02
2018-01-21T10:08:10.426Z,973.03
2018-01-21T10:09:10.470Z,973.08
2018-01-21T10:10:10.420Z,973.07
2018-01-21T10:11:10.426Z,973.05
2018-01-21T10:12:10.432Z,973.06
2018-01-21T10:13:10.415Z,973.06
2018-01-21T10:14:11.264Z,973.03
2018-01-21T10:15:10.428Z,973.08
2018-01-21T10:16:10.399Z,973.11
2018-01-21T10:17:10.389Z,973.12
2018-01-21T10:18:10.456Z,973.11
2018-01-21T10:19:10.404Z,973.17
2018-01-21T10:20:10.382Z,973.19
2018-01-21T10:21:10.393Z,973.17
2018-01-21T10:22:10.370Z,973.19
2018-01-21T10:23:10.401Z,973.20
2018-01-21T10:24:10.409Z,973.27
2018-01-21T10:25:10.357Z,973.27
2018-01-21T10:26:10.394Z,973.30
2018-01-21T10:27:10.381Z,973.27
2018-01-21T10:28:10.369Z,973.34
2018-01-21T10:29:10.400Z,973.34
2018-01-21T10:30:10.354Z,973.31
2018-01-21T10:31:10.358Z,973.38
2018-01-21T10:32:10.344Z,973.42
2018-01-21T10:33:10.334Z,973.45
2018-01-21T10:34:10.396Z,973.40
2018-01-21T10:35:10.339Z,973.39
2018-01-21T10:36:10.340Z,973.43
2018-01-21T10:37:10.323Z,973.43
2018-01-21T10:38:10.361Z,973.46
2018-01-21T10:39:10.323Z,973.49
2018-01-21T10:40:10.392Z,973.54
2018-01-21T10:41:10.326Z,973.55
2018-01-21T10:42:10.316Z,973.57
2018-01-21T10:43:10.368Z,973.61
2018-01-21T10:44:10.294Z,973.60
2018-01-21T10:45:10.317Z,973.61
2018-01-21T10:46:10.364Z,973.65
2018-01-21T10:47:10.309Z,973.66
2018-01-21T10:48:10.342Z,973.66
2018-01-21T10:49:10.287Z,973.70
2018-01-21T10:50:10.293Z,973.69
2018-01-21T10:51:10.336Z,973.72
2018-01-21T10:52:10.285Z,973.76
2018-01-21T10:53:10.278Z,973.78
2018-01-21T10:54:10.280Z,973.76
2018-01-21T10:55:10.268Z,973.78
2018-01-21T10:56:10.330Z,973.81
2018-01-21T10:57:10.272Z,973.81
2018-01-21T10:58:10.299Z,973.83
2018-01-21T10:59:10.253Z,973.83
2018-01-21T11:00:10.934Z,973.81
2018-01-21T11:01:10.263Z,973.87
2018-01-21T11:02:10.324Z,973.88
2018-01-21T11:03:10.253Z,973.91
2018-01-21T11:04:10.241Z,973.93
2018-01-21T11:05:10.232Z,973.98
2018-01-21T11:06:10.956Z,973.97
2018-01-21T11:07:10.293Z,973.97
2018-01-21T11:08:10.228Z,973.98
2018-01-21T11:09:10.227Z,973.97
2018-01-21T11:10:10.241Z,974.04
2018-01-21T11:11:10.236Z,974.01
2018-01-21T11:12:10.285Z,974.03
2018-01-21T11:13:10.973Z,974.05
2018-01-21T11:14:10.228Z,974.07
2018-01-21T11:15:10.224Z,974.07
2018-01-21T11:16:10.220Z,974.07
2018-01-21T11:17:10.268Z,974.10
2018-01-21T11:18:10.210Z,974.13
2018-01-21T11:19:10.236Z,974.17
2018-01-21T11:20:10.200Z,974.21
2018-01-21T11:21:10.206Z,974.23
2018-01-21T11:22:10.248Z,974.25
2018-01-21T11:23:10.193Z,974.24
2018-01-21T11:24:10.185Z,974.27
2018-01-21T11:25:10.190Z,974.30
2018-01-21T11:26:10.165Z,974.35
2018-01-21T11:27:10.233Z,974.35
2018-01-21T11:28:10.963Z,974.32
2018-01-21T11:29:10.216Z,974.34
2018-01-21T11:30:10.174Z,974.37
2018-01-21T11:31:10.169Z,974.40
2018-01-21T11:32:10.177Z,974.44
2018-01-21T11:33:10.805Z,974.40
2018-01-21T11:34:10.203Z,974.45
2018-01-21T11:35:10.161Z,974.46
2018-01-21T11:36:10.156Z,974.49
2018-01-21T11:37:10.203Z,974.51
2018-01-21T11:38:10.145Z,974.52
2018-01-21T11:39:10.164Z,974.57
2018-01-21T11:40:10.197Z,974.57
2018-01-21T11:41:10.139Z,974.53
2018-01-21T11:42:10.138Z,974.57
2018-01-21T11:43:10.128Z,974.58
2018-01-21T11:44:10.151Z,974.59
2018-01-21T11:45:10.177Z,974.60
2018-01-21T11:46:10.148Z,974.60
2018-01-21T11:47:10.824Z,974.64
2018-01-21T11:48:10.119Z,974.61
2018-01-21T11:49:10.174Z,974.58
2018-01-21T11:50:10.135Z,974.58
2018-01-21T11:51:10.113Z,974.61
2018-01-21T11:52:10.155Z,974.66
2018-01-21T11:53:10.104Z,974.64
2018-01-21T11:54:10.109Z,974.65
2018-01-21T11:55:10.147Z,974.68
2018-01-21T11:56:10.096Z,974.66
2018-01-21T11:57:10.158Z,974.70
2018-01-21T11:58:10.088Z,974.75
2018-01-21T11:59:10.082Z,974.74
2018-01-21T12:00:10.088Z,974.75
2018-01-21T12:01:10.121Z,974.80
2018-01-21T12:02:10.092Z,974.79
2018-01-21T12:03:10.088Z,974.81
2018-01-21T12:04:10.079Z,974.82
2018-01-21T12:05:10.113Z,974.83
2018-01-21T12:06:10.074Z,974.88
2018-01-21T12:07:10.123Z,974.89
2018-01-21T12:08:10.061Z,974.91
2018-01-21T12:09:10.876Z,974.90
2018-01-21T12:10:10.057Z,974.96
2018-01-21T12:11:10.105Z,974.93
2018-01-21T12:12:10.056Z,974.90
2018-01-21T12:13:10.055Z,974.94
2018-01-21T12:14:10.054Z,974.98
2018-01-21T12:15:10.052Z,974.97
2018-01-21T12:16:10.087Z,974.99
2018-01-21T12:17:10.045Z,975.02
2018-01-21T12:18:10.052Z,975.03
2018-01-21T12:19:10.036Z,975.01
2018-01-21T12:20:10.029Z,974.99
2018-01-21T12:21:10.082Z,974.99
2018-01-21T12:22:10.021Z,974.97
2018-01-21T12:23:10.029Z,974.98
2018-01-21T12:24:10.019Z,974.97
2018-01-21T12:25:10.014Z,975.00
2018-01-21T12:26:10.053Z,974.97
2018-01-21T12:27:10.020Z,975.02
2018-01-21T12:28:10.063Z,975.04